sensor_id;sensor_type;location;lat;lon;timestamp;pressure;altitude;pressure_sealevel;temperature;humidity
45285;BME280;31026;43.780;25.948;2022-07-29T00:01:03;100877.81;;;25.77;64.92
45285;BME280;31026;43.780;25.948;2022-07-29T00:03:31;100869.69;;;25.77;65.06
45285;BME280;31026;43.780;25.948;2022-07-29T00:06:00;100867.97;;;25.76;65.09
45285;BME280;31026;43.780;25.948;2022-07-29T00:08:28;100857.34;;;25.75;64.86
45285;BME280;31026;43.780;25.948;2022-07-29T00:10:56;100860.72;;;25.77;65.03
45285;BME280;31026;43.780;25.948;2022-07-29T00:13:24;100861.06;;;25.74;64.76
45285;BME280;31026;43.780;25.948;2022-07-29T00:15:55;100878.47;;;25.79;65.02
45285;BME280;31026;43.780;25.948;2022-07-29T00:18:23;100866.97;;;25.77;64.89
45285;BME280;31026;43.780;25.948;2022-07-29T00:20:52;100879.84;;;25.75;64.84
45285;BME280;31026;43.780;25.948;2022-07-29T00:23:20;100870.03;;;25.74;64.98
45285;BME280;31026;43.780;25.948;2022-07-29T00:25:48;100864.28;;;25.77;64.70
45285;BME280;31026;43.780;25.948;2022-07-29T00:28:16;100866.47;;;25.74;64.69
45285;BME280;31026;43.780;25.948;2022-07-29T00:30:45;100875.09;;;25.77;64.84
45285;BME280;31026;43.780;25.948;2022-07-29T00:33:16;100875.09;;;25.77;64.99
45285;BME280;31026;43.780;25.948;2022-07-29T00:35:44;100863.94;;;25.72;64.99
45285;BME280;31026;43.780;25.948;2022-07-29T00:38:10;100879.84;;;25.75;64.93
45285;BME280;31026;43.780;25.948;2022-07-29T00:40:38;100874.78;;;25.72;64.99
45285;BME280;31026;43.780;25.948;2022-07-29T00:43:06;100892.72;;;25.73;64.83
45285;BME280;31026;43.780;25.948;2022-07-29T00:45:35;100887.31;;;25.73;64.72
45285;BME280;31026;43.780;25.948;2022-07-29T00:48:04;100885.28;;;25.75;64.56
45285;BME280;31026;43.780;25.948;2022-07-29T00:50:36;100873.09;;;25.71;64.68
45285;BME280;31026;43.780;25.948;2022-07-29T00:53:05;100871.06;;;25.73;64.73
45285;BME280;31026;43.780;25.948;2022-07-29T00:55:34;100874.44;;;25.75;65.09
45285;BME280;31026;43.780;25.948;2022-07-29T00:58:03;100879.34;;;25.72;64.82
45285;BME280;31026;43.780;25.948;2022-07-29T01:00:31;100858.91;;;25.69;64.76
45285;BME280;31026;43.780;25.948;2022-07-29T01:02:59;100872.06;;;25.72;64.67
45285;BME280;31026;43.780;25.948;2022-07-29T01:05:28;100872.06;;;25.72;64.77
45285;BME280;31026;43.780;25.948;2022-07-29T01:07:59;100874.78;;;25.72;64.51
45285;BME280;31026;43.780;25.948;2022-07-29T01:10:28;100866.66;;;25.72;64.56
45285;BME280;31026;43.780;25.948;2022-07-29T01:12:57;100864.16;;;25.71;64.77
45285;BME280;31026;43.780;25.948;2022-07-29T01:15:27;100861.25;;;25.72;64.99
45285;BME280;31026;43.780;25.948;2022-07-29T01:17:58;100862.09;;;25.73;65.08
45285;BME280;31026;43.780;25.948;2022-07-29T01:20:31;100864.81;;;25.73;64.69
45285;BME280;31026;43.780;25.948;2022-07-29T01:23:11;100863.09;;;25.72;64.86
45285;BME280;31026;43.780;25.948;2022-07-29T01:25:46;100859.41;;;25.73;64.85
45285;BME280;31026;43.780;25.948;2022-07-29T01:30:55;100862.28;;;25.71;64.84
45285;BME280;31026;43.780;25.948;2022-07-29T01:33:24;100862.63;;;25.68;64.95
45285;BME280;31026;43.780;25.948;2022-07-29T01:36:07;100847.22;;;25.69;64.85
45285;BME280;31026;43.780;25.948;2022-07-29T01:38:39;100859.91;;;25.68;64.71
45285;BME280;31026;43.780;25.948;2022-07-29T01:41:09;100864.16;;;25.71;64.54
45285;BME280;31026;43.780;25.948;2022-07-29T01:43:39;100865.66;;;25.73;64.52
45285;BME280;31026;43.780;25.948;2022-07-29T01:46:13;100868.34;;;25.73;64.74
45285;BME280;31026;43.780;25.948;2022-07-29T01:48:44;100862.28;;;25.71;64.75
45285;BME280;31026;43.780;25.948;2022-07-29T01:51:14;100874.78;;;25.72;64.74
45285;BME280;31026;43.780;25.948;2022-07-29T01:53:45;100858.91;;;25.69;64.57
45285;BME280;31026;43.780;25.948;2022-07-29T01:56:14;100856.47;;;25.74;64.87
45285;BME280;31026;43.780;25.948;2022-07-29T01:58:45;100877.69;;;25.71;64.90
45285;BME280;31026;43.780;25.948;2022-07-29T02:01:16;100857.88;;;25.70;64.63
45285;BME280;31026;43.780;25.948;2022-07-29T02:03:45;100853.81;;;25.66;64.58
45285;BME280;31026;43.780;25.948;2022-07-29T02:06:15;100851.97;;;25.67;64.80
45285;BME280;31026;43.780;25.948;2022-07-29T02:08:45;100861.44;;;25.71;64.58
45285;BME280;31026;43.780;25.948;2022-07-29T02:11:15;100863.66;;;25.67;64.47
45285;BME280;31026;43.780;25.948;2022-07-29T02:13:43;100855.53;;;25.67;64.66
45285;BME280;31026;43.780;25.948;2022-07-29T02:16:13;100867.03;;;25.69;64.46
45285;BME280;31026;43.780;25.948;2022-07-29T02:18:45;100840.66;;;25.63;64.81
45285;BME280;31026;43.780;25.948;2022-07-29T02:21:16;100855.88;;;25.64;64.54
45285;BME280;31026;43.780;25.948;2022-07-29T02:23:47;100857.91;;;25.62;64.67
45285;BME280;31026;43.780;25.948;2022-07-29T02:26:16;100853.81;;;25.66;64.61
45285;BME280;31026;43.780;25.948;2022-07-29T02:28:45;100845.41;;;25.61;64.72
45285;BME280;31026;43.780;25.948;2022-07-29T02:31:14;100849.28;;;25.67;64.80
45285;BME280;31026;43.780;25.948;2022-07-29T02:33:47;100850.44;;;25.64;64.42
45285;BME280;31026;43.780;25.948;2022-07-29T02:36:16;100859.25;;;25.66;64.39
45285;BME280;31026;43.780;25.948;2022-07-29T02:38:45;100856.53;;;25.66;64.35
45285;BME280;31026;43.780;25.948;2022-07-29T02:41:23;100846.06;;;25.63;64.71
45285;BME280;31026;43.780;25.948;2022-07-29T02:43:55;100837.13;;;25.63;64.74
45285;BME280;31026;43.780;25.948;2022-07-29T02:46:26;100869.72;;;25.69;64.77
45285;BME280;31026;43.780;25.948;2022-07-29T02:48:59;100859.63;;;25.63;64.64
45285;BME280;31026;43.780;25.948;2022-07-29T02:51:32;100864.66;;;25.66;64.75
45285;BME280;31026;43.780;25.948;2022-07-29T02:54:01;100868.63;;;24.99;61.66
45285;BME280;31026;43.780;25.948;2022-07-29T02:56:34;100868.22;;;25.27;61.92
45285;BME280;31026;43.780;25.948;2022-07-29T02:59:05;100870.31;;;25.48;61.65
45285;BME280;31026;43.780;25.948;2022-07-29T03:01:35;100869.81;;;25.53;62.64
45285;BME280;31026;43.780;25.948;2022-07-29T03:04:09;100875.53;;;25.58;63.62
45285;BME280;31026;43.780;25.948;2022-07-29T03:06:39;100882.66;;;25.59;64.00
45285;BME280;31026;43.780;25.948;2022-07-29T03:09:08;100886.19;;;25.59;64.13
45285;BME280;31026;43.780;25.948;2022-07-29T03:11:38;100894.16;;;25.61;63.78
45285;BME280;31026;43.780;25.948;2022-07-29T03:14:07;100882.00;;;25.57;64.21
45285;BME280;31026;43.780;25.948;2022-07-29T03:16:35;100881.63;;;25.60;63.94
45285;BME280;31026;43.780;25.948;2022-07-29T03:19:04;100892.44;;;25.60;63.93
45285;BME280;31026;43.780;25.948;2022-07-29T03:21:35;100897.88;;;25.60;63.87
45285;BME280;31026;43.780;25.948;2022-07-29T03:24:04;100877.25;;;25.59;63.91
45285;BME280;31026;43.780;25.948;2022-07-29T03:26:32;100886.03;;;25.61;64.18
45285;BME280;31026;43.780;25.948;2022-07-29T03:29:00;100885.38;;;25.59;63.92
45285;BME280;31026;43.780;25.948;2022-07-29T03:31:29;100895.81;;;25.62;64.04
45285;BME280;31026;43.780;25.948;2022-07-29T03:33:57;100881.63;;;25.60;64.03
45285;BME280;31026;43.780;25.948;2022-07-29T03:36:26;100878.06;;;25.59;63.94
45285;BME280;31026;43.780;25.948;2022-07-29T03:38:57;100899.56;;;25.61;64.11
45285;BME280;31026;43.780;25.948;2022-07-29T03:41:25;100897.88;;;25.60;63.93
45285;BME280;31026;43.780;25.948;2022-07-29T03:43:54;100898.22;;;25.57;63.77
45285;BME280;31026;43.780;25.948;2022-07-29T03:46:23;100912.06;;;25.62;63.83
45285;BME280;31026;43.780;25.948;2022-07-29T03:48:52;100902.44;;;25.59;63.75
45285;BME280;31026;43.780;25.948;2022-07-29T03:51:23;100911.41;;;25.60;63.92
45285;BME280;31026;43.780;25.948;2022-07-29T03:53:52;100888.91;;;25.59;63.96
45285;BME280;31026;43.780;25.948;2022-07-29T03:56:23;100896.03;;;25.60;63.72
45285;BME280;31026;43.780;25.948;2022-07-29T03:58:52;100894.16;;;25.61;63.93
45285;BME280;31026;43.780;25.948;2022-07-29T04:01:21;100872.50;;;25.61;63.67
45285;BME280;31026;43.780;25.948;2022-07-29T04:03:50;100899.56;;;25.61;63.91
45285;BME280;31026;43.780;25.948;2022-07-29T04:06:19;100901.25;;;25.62;63.74
45285;BME280;31026;43.780;25.948;2022-07-29T04:08:47;100908.69;;;25.60;63.93
45285;BME280;31026;43.780;25.948;2022-07-29T04:11:15;100905.00;;;25.61;63.54
45285;BME280;31026;43.780;25.948;2022-07-29T04:13:46;100902.44;;;25.59;63.73
45285;BME280;31026;43.780;25.948;2022-07-29T04:16:15;100922.75;;;25.64;63.81
45285;BME280;31026;43.780;25.948;2022-07-29T04:18:43;100901.91;;;25.64;63.70
45285;BME280;31026;43.780;25.948;2022-07-29T04:21:11;100909.69;;;25.67;63.61
45285;BME280;31026;43.780;25.948;2022-07-29T04:23:39;100907.66;;;25.69;63.56
45285;BME280;31026;43.780;25.948;2022-07-29T04:26:10;100907.81;;;25.68;63.54
45285;BME280;31026;43.780;25.948;2022-07-29T04:28:38;100915.59;;;25.71;63.63
45285;BME280;31026;43.780;25.948;2022-07-29T04:31:10;100912.69;;;25.72;63.64
45285;BME280;31026;43.780;25.948;2022-07-29T04:33:39;100918.13;;;25.72;63.44
45285;BME280;31026;43.780;25.948;2022-07-29T04:36:07;100916.44;;;25.71;63.37
45285;BME280;31026;43.780;25.948;2022-07-29T04:38:36;100919.31;;;25.70;63.53
45285;BME280;31026;43.780;25.948;2022-07-29T04:41:04;100922.34;;;25.75;63.42
45285;BME280;31026;43.780;25.948;2022-07-29T04:43:33;100915.91;;;25.76;63.44
45285;BME280;31026;43.780;25.948;2022-07-29T04:46:02;100917.78;;;25.75;63.28
45285;BME280;31026;43.780;25.948;2022-07-29T04:48:33;100923.69;;;25.79;63.29
45285;BME280;31026;43.780;25.948;2022-07-29T04:51:01;100920.66;;;25.74;63.49
45285;BME280;31026;43.780;25.948;2022-07-29T04:53:30;100943.50;;;25.79;63.46
45285;BME280;31026;43.780;25.948;2022-07-29T04:55:58;100926.91;;;25.74;63.50
45285;BME280;31026;43.780;25.948;2022-07-29T04:58:26;100915.56;;;25.79;63.25
45285;BME280;31026;43.780;25.948;2022-07-29T05:00:55;100935.03;;;25.83;63.20
45285;BME280;31026;43.780;25.948;2022-07-29T05:03:23;100942.13;;;25.84;63.31
45285;BME280;31026;43.780;25.948;2022-07-29T05:05:54;100937.38;;;25.86;63.19
45285;BME280;31026;43.780;25.948;2022-07-29T05:08:22;100933.13;;;25.91;63.07
45285;BME280;31026;43.780;25.948;2022-07-29T05:10:51;100945.16;;;25.89;63.12
45285;BME280;31026;43.780;25.948;2022-07-29T05:13:19;100934.63;;;25.94;63.04
45285;BME280;31026;43.780;25.948;2022-07-29T05:15:47;100937.72;;;25.91;63.06
45285;BME280;31026;43.780;25.948;2022-07-29T05:18:16;100925.00;;;25.91;63.06
45285;BME280;31026;43.780;25.948;2022-07-29T05:20:44;100931.94;;;25.94;62.89
45285;BME280;31026;43.780;25.948;2022-07-29T05:23:15;100938.22;;;25.94;62.91
45285;BME280;31026;43.780;25.948;2022-07-29T05:25:43;100929.59;;;25.91;62.88
45285;BME280;31026;43.780;25.948;2022-07-29T05:28:12;100933.13;;;25.91;63.04
45285;BME280;31026;43.780;25.948;2022-07-29T05:30:40;100916.72;;;25.93;62.91
45285;BME280;31026;43.780;25.948;2022-07-29T05:33:09;100943.13;;;25.91;63.00
45285;BME280;31026;43.780;25.948;2022-07-29T05:35:38;100943.81;;;25.93;62.83
45285;BME280;31026;43.780;25.948;2022-07-29T05:38:06;100933.13;;;25.91;63.07
45285;BME280;31026;43.780;25.948;2022-07-29T05:40:37;100930.56;;;25.90;63.08
45285;BME280;31026;43.780;25.948;2022-07-29T05:43:05;100941.56;;;25.88;63.11
45285;BME280;31026;43.780;25.948;2022-07-29T05:45:34;100936.84;;;25.90;63.10
45285;BME280;31026;43.780;25.948;2022-07-29T05:48:02;100932.31;;;25.91;62.92
45285;BME280;31026;43.780;25.948;2022-07-29T05:50:30;100933.28;;;25.90;63.22
45285;BME280;31026;43.780;25.948;2022-07-29T05:52:59;100939.38;;;25.92;63.20
45285;BME280;31026;43.780;25.948;2022-07-29T05:55:27;100932.81;;;25.94;63.05
45285;BME280;31026;43.780;25.948;2022-07-29T05:57:58;100936.34;;;25.95;62.80
45285;BME280;31026;43.780;25.948;2022-07-29T06:00:27;100941.22;;;25.99;62.86
45285;BME280;31026;43.780;25.948;2022-07-29T06:02:55;100943.44;;;25.96;63.01
45285;BME280;31026;43.780;25.948;2022-07-29T06:05:23;100939.06;;;25.95;62.65
45285;BME280;31026;43.780;25.948;2022-07-29T06:07:52;100937.69;;;25.99;62.73
45285;BME280;31026;43.780;25.948;2022-07-29T06:10:20;100931.22;;;26.00;62.99
45285;BME280;31026;43.780;25.948;2022-07-29T06:12:49;100918.88;;;25.97;62.87
45285;BME280;31026;43.780;25.948;2022-07-29T06:15:20;100929.53;;;25.99;62.58
45285;BME280;31026;43.780;25.948;2022-07-29T06:17:49;100918.53;;;26.01;62.81
45285;BME280;31026;43.780;25.948;2022-07-29T06:20:17;100927.50;;;26.01;62.79
45285;BME280;31026;43.780;25.948;2022-07-29T06:22:46;100930.22;;;26.01;62.96
45285;BME280;31026;43.780;25.948;2022-07-29T06:25:14;100937.50;;;26.01;62.75
45285;BME280;31026;43.780;25.948;2022-07-29T06:27:42;100942.72;;;26.02;62.93
45285;BME280;31026;43.780;25.948;2022-07-29T06:30:11;100932.75;;;26.03;62.74
45285;BME280;31026;43.780;25.948;2022-07-29T06:32:42;100945.44;;;26.02;62.84
45285;BME280;31026;43.780;25.948;2022-07-29T06:35:11;100933.94;;;26.00;62.92
45285;BME280;31026;43.780;25.948;2022-07-29T06:37:39;100945.94;;;26.06;62.78
45285;BME280;31026;43.780;25.948;2022-07-29T06:40:08;100938.84;;;26.05;62.83
45285;BME280;31026;43.780;25.948;2022-07-29T06:42:49;100934.59;;;26.02;62.66
45285;BME280;31026;43.780;25.948;2022-07-29T06:45:17;100940.88;;;26.03;62.79
45285;BME280;31026;43.780;25.948;2022-07-29T06:47:48;100936.28;;;26.03;62.58
45285;BME280;31026;43.780;25.948;2022-07-29T06:50:17;100940.88;;;26.03;62.68
45285;BME280;31026;43.780;25.948;2022-07-29T06:52:46;100930.88;;;26.03;62.84
45285;BME280;31026;43.780;25.948;2022-07-29T06:55:14;100929.00;;;26.04;62.73
45285;BME280;31026;43.780;25.948;2022-07-29T06:57:44;100940.50;;;26.06;62.70
45285;BME280;31026;43.780;25.948;2022-07-29T07:00:13;100945.09;;;26.05;62.76
45285;BME280;31026;43.780;25.948;2022-07-29T07:02:42;100937.78;;;26.06;62.68
45285;BME280;31026;43.780;25.948;2022-07-29T07:05:13;100945.09;;;26.05;62.57
45285;BME280;31026;43.780;25.948;2022-07-29T07:07:41;100944.72;;;26.08;62.67
45285;BME280;31026;43.780;25.948;2022-07-29T07:10:09;100926.78;;;26.07;62.75
45285;BME280;31026;43.780;25.948;2022-07-29T07:12:38;100925.94;;;26.07;62.97
45285;BME280;31026;43.780;25.948;2022-07-29T07:15:06;100937.78;;;26.06;62.62
45285;BME280;31026;43.780;25.948;2022-07-29T07:17:35;100941.34;;;26.06;62.68
45285;BME280;31026;43.780;25.948;2022-07-29T07:20:04;100925.56;;;26.10;62.69
45285;BME280;31026;43.780;25.948;2022-07-29T07:22:35;100938.84;;;26.05;62.77
45285;BME280;31026;43.780;25.948;2022-07-29T07:25:04;100930.50;;;26.06;62.65
45285;BME280;31026;43.780;25.948;2022-07-29T07:27:33;100935.91;;;26.06;62.59
45285;BME280;31026;43.780;25.948;2022-07-29T07:30:02;100925.09;;;26.06;62.79
45285;BME280;31026;43.780;25.948;2022-07-29T07:32:31;100927.78;;;26.06;62.89
45285;BME280;31026;43.780;25.948;2022-07-29T07:34:59;100916.94;;;26.06;62.85
45285;BME280;31026;43.780;25.948;2022-07-29T07:37:27;100925.94;;;26.07;62.72
45285;BME280;31026;43.780;25.948;2022-07-29T07:39:58;100907.81;;;26.07;62.64
45285;BME280;31026;43.780;25.948;2022-07-29T07:42:27;100930.81;;;26.11;62.81
45285;BME280;31026;43.780;25.948;2022-07-29T07:44:56;100902.56;;;26.06;62.87
45285;BME280;31026;43.780;25.948;2022-07-29T07:47:24;100912.19;;;26.08;62.79
45285;BME280;31026;43.780;25.948;2022-07-29T07:49:53;100913.22;;;26.07;62.65
45285;BME280;31026;43.780;25.948;2022-07-29T07:52:21;100934.91;;;26.07;62.81
45285;BME280;31026;43.780;25.948;2022-07-29T07:54:50;100919.31;;;26.09;62.77
45285;BME280;31026;43.780;25.948;2022-07-29T07:57:21;100913.91;;;26.09;62.84
45285;BME280;31026;43.780;25.948;2022-07-29T07:59:49;100920.16;;;26.10;62.62
45285;BME280;31026;43.780;25.948;2022-07-29T08:02:18;100921.53;;;26.06;62.78
45285;BME280;31026;43.780;25.948;2022-07-29T08:04:46;100907.63;;;26.09;62.62
45285;BME280;31026;43.780;25.948;2022-07-29T08:07:14;100919.31;;;26.09;62.75
45285;BME280;31026;43.780;25.948;2022-07-29T08:09:43;100920.31;;;26.08;62.69
45285;BME280;31026;43.780;25.948;2022-07-29T08:12:11;100916.25;;;26.12;62.74
45285;BME280;31026;43.780;25.948;2022-07-29T08:14:42;100916.59;;;26.09;62.63
45285;BME280;31026;43.780;25.948;2022-07-29T08:17:11;100918.47;;;26.09;62.73
45285;BME280;31026;43.780;25.948;2022-07-29T08:19:39;100911.69;;;26.13;62.75
45285;BME280;31026;43.780;25.948;2022-07-29T08:22:08;100914.91;;;26.08;62.84
45285;BME280;31026;43.780;25.948;2022-07-29T08:24:36;100904.94;;;26.09;62.71
45285;BME280;31026;43.780;25.948;2022-07-29T08:27:17;100899.34;;;26.10;62.79
45285;BME280;31026;43.780;25.948;2022-07-29T08:29:48;100892.38;;;26.08;62.73
45285;BME280;31026;43.780;25.948;2022-07-29T08:32:17;100915.94;;;26.07;62.69
45285;BME280;31026;43.780;25.948;2022-07-29T08:34:45;100901.56;;;26.07;62.62
45285;BME280;31026;43.780;25.948;2022-07-29T08:37:14;100910.19;;;26.10;62.46
45285;BME280;31026;43.780;25.948;2022-07-29T08:39:42;100906.78;;;26.08;62.57
45285;BME280;31026;43.780;25.948;2022-07-29T08:42:11;100905.09;;;26.07;62.49
45285;BME280;31026;43.780;25.948;2022-07-29T08:44:40;100900.34;;;26.09;62.61
45285;BME280;31026;43.780;25.948;2022-07-29T08:47:11;100889.34;;;26.11;62.68
45285;BME280;31026;43.780;25.948;2022-07-29T08:49:41;100901.34;;;26.08;62.51
45285;BME280;31026;43.780;25.948;2022-07-29T08:52:12;100894.94;;;26.09;62.50
45285;BME280;31026;43.780;25.948;2022-07-29T08:54:43;100886.44;;;26.12;62.80
45285;BME280;31026;43.780;25.948;2022-07-29T08:57:12;100890.50;;;26.08;62.64
45285;BME280;31026;43.780;25.948;2022-07-29T08:59:42;100878.66;;;26.09;62.66
45285;BME280;31026;43.780;25.948;2022-07-29T09:02:18;100891.56;;;26.07;62.65
45285;BME280;31026;43.780;25.948;2022-07-29T09:04:47;100875.28;;;26.07;62.51
45285;BME280;31026;43.780;25.948;2022-07-29T09:07:16;100875.97;;;26.09;62.60
45285;BME280;31026;43.780;25.948;2022-07-29T09:09:45;100868.84;;;26.08;62.71
45285;BME280;31026;43.780;25.948;2022-07-29T09:12:14;100878.00;;;26.07;62.56
45285;BME280;31026;43.780;25.948;2022-07-29T09:14:43;100880.38;;;26.10;62.52
45285;BME280;31026;43.780;25.948;2022-07-29T09:17:14;100866.81;;;26.10;62.74
45285;BME280;31026;43.780;25.948;2022-07-29T09:19:43;100876.97;;;26.08;62.46
45285;BME280;31026;43.780;25.948;2022-07-29T09:22:11;100887.63;;;26.10;62.62
45285;BME280;31026;43.780;25.948;2022-07-29T09:24:40;100854.28;;;26.09;62.75
45285;BME280;31026;43.780;25.948;2022-07-29T09:29:55;100871.38;;;26.10;62.85
45285;BME280;31026;43.780;25.948;2022-07-29T09:32:28;100868.66;;;26.10;62.74
45285;BME280;31026;43.780;25.948;2022-07-29T09:37:40;100872.75;;;26.06;62.72
45285;BME280;31026;43.780;25.948;2022-07-29T09:40:12;100867.88;;;26.01;62.85
45285;BME280;31026;43.780;25.948;2022-07-29T09:42:41;100864.34;;;26.01;62.80
45285;BME280;31026;43.780;25.948;2022-07-29T09:45:10;100868.38;;;26.05;62.86
45285;BME280;31026;43.780;25.948;2022-07-29T09:47:45;100857.53;;;26.05;63.06
45285;BME280;31026;43.780;25.948;2022-07-29T09:50:14;100858.47;;;26.12;62.77
45285;BME280;31026;43.780;25.948;2022-07-29T09:52:45;100859.59;;;26.03;62.91
45285;BME280;31026;43.780;25.948;2022-07-29T09:55:14;100848.19;;;26.07;62.70
45285;BME280;31026;43.780;25.948;2022-07-29T09:57:43;100850.91;;;26.07;62.97
45285;BME280;31026;43.780;25.948;2022-07-29T10:00:12;100849.84;;;26.08;62.67
45285;BME280;31026;43.780;25.948;2022-07-29T10:02:42;100850.91;;;26.07;62.88
45285;BME280;31026;43.780;25.948;2022-07-29T10:05:20;100856.31;;;26.07;62.75
45285;BME280;31026;43.780;25.948;2022-07-29T10:07:50;100842.09;;;26.05;62.85
45285;BME280;31026;43.780;25.948;2022-07-29T10:10:19;100837.34;;;26.07;62.98
45285;BME280;31026;43.780;25.948;2022-07-29T10:12:48;100833.81;;;26.07;62.76
45285;BME280;31026;43.780;25.948;2022-07-29T10:15:17;100839.03;;;26.08;62.82
45285;BME280;31026;43.780;25.948;2022-07-29T10:17:46;100837.34;;;26.07;62.83
45285;BME280;31026;43.780;25.948;2022-07-29T10:20:16;100826.16;;;26.10;62.97
45285;BME280;31026;43.780;25.948;2022-07-29T10:22:47;100822.97;;;26.07;62.82
45285;BME280;31026;43.780;25.948;2022-07-29T10:25:17;100813.97;;;26.06;63.03
45285;BME280;31026;43.780;25.948;2022-07-29T10:27:46;100838.84;;;26.10;62.72
45285;BME280;31026;43.780;25.948;2022-07-29T10:30:17;100822.09;;;26.06;62.90
45285;BME280;31026;43.780;25.948;2022-07-29T10:32:59;100798.75;;;26.05;62.85
45285;BME280;31026;43.780;25.948;2022-07-29T10:35:42;100814.84;;;26.07;62.95
45285;BME280;31026;43.780;25.948;2022-07-29T10:41:12;100816.22;;;26.03;62.95
45285;BME280;31026;43.780;25.948;2022-07-29T10:44:00;100812.31;;;26.05;62.92
45285;BME280;31026;43.780;25.948;2022-07-29T10:46:34;100805.00;;;26.06;62.92
45285;BME280;31026;43.780;25.948;2022-07-29T10:49:10;100805.84;;;26.06;63.09
45285;BME280;31026;43.780;25.948;2022-07-29T10:54:41;100805.00;;;26.06;62.89
45285;BME280;31026;43.780;25.948;2022-07-29T10:57:24;100791.63;;;26.04;63.00
45285;BME280;31026;43.780;25.948;2022-07-29T11:02:45;100787.25;;;26.03;63.20
45285;BME280;31026;43.780;25.948;2022-07-29T11:05:18;100783.72;;;26.03;63.01
45285;BME280;31026;43.780;25.948;2022-07-29T11:10:32;100774.19;;;26.07;63.14
45285;BME280;31026;43.780;25.948;2022-07-29T11:13:03;100768.56;;;26.08;62.80
45285;BME280;31026;43.780;25.948;2022-07-29T11:15:51;100775.69;;;26.09;62.89
45285;BME280;31026;43.780;25.948;2022-07-29T11:18:20;100777.56;;;26.09;62.90
45285;BME280;31026;43.780;25.948;2022-07-29T11:20:49;100766.88;;;26.07;62.71
45285;BME280;31026;43.780;25.948;2022-07-29T11:23:19;100763.84;;;26.10;62.79
45285;BME280;31026;43.780;25.948;2022-07-29T11:28:35;100763.34;;;26.07;62.97
45285;BME280;31026;43.780;25.948;2022-07-29T11:31:04;100760.25;;;26.10;63.13
45285;BME280;31026;43.780;25.948;2022-07-29T11:33:34;100754.66;;;26.11;62.90
45285;BME280;31026;43.780;25.948;2022-07-29T11:36:09;100753.81;;;26.11;62.71
45285;BME280;31026;43.780;25.948;2022-07-29T11:38:38;100750.94;;;26.12;62.90
45285;BME280;31026;43.780;25.948;2022-07-29T11:43:53;100752.59;;;26.13;62.96
45285;BME280;31026;43.780;25.948;2022-07-29T11:49:06;100749.25;;;26.11;62.74
45285;BME280;31026;43.780;25.948;2022-07-29T11:51:34;100745.50;;;26.12;62.94
45285;BME280;31026;43.780;25.948;2022-07-29T11:54:03;100721.31;;;26.11;62.80
45285;BME280;31026;43.780;25.948;2022-07-29T11:56:32;100731.31;;;26.10;62.78
45285;BME280;31026;43.780;25.948;2022-07-29T11:59:06;100734.28;;;26.15;62.77
45285;BME280;31026;43.780;25.948;2022-07-29T12:01:35;100713.16;;;26.11;62.93
45285;BME280;31026;43.780;25.948;2022-07-29T12:04:04;100720.75;;;26.15;62.72
45285;BME280;31026;43.780;25.948;2022-07-29T12:06:32;100720.47;;;26.10;62.88
45285;BME280;31026;43.780;25.948;2022-07-29T12:09:06;100704.22;;;26.10;62.73
45285;BME280;31026;43.780;25.948;2022-07-29T12:11:35;100724.50;;;26.14;62.59
45285;BME280;31026;43.780;25.948;2022-07-29T12:14:06;100725.50;;;26.13;62.73
45285;BME280;31026;43.780;25.948;2022-07-29T12:16:34;100708.41;;;26.13;62.69
45285;BME280;31026;43.780;25.948;2022-07-29T12:19:03;100694.56;;;26.08;62.99
45285;BME280;31026;43.780;25.948;2022-07-29T12:21:42;100688.97;;;26.09;62.84
45285;BME280;31026;43.780;25.948;2022-07-29T12:24:11;100691.66;;;26.09;62.80
45285;BME280;31026;43.780;25.948;2022-07-29T12:26:48;100676.06;;;26.11;62.80
45285;BME280;31026;43.780;25.948;2022-07-29T12:29:19;100688.03;;;26.17;62.74
45285;BME280;31026;43.780;25.948;2022-07-29T12:31:51;100690.94;;;26.15;62.89
45285;BME280;31026;43.780;25.948;2022-07-29T12:34:20;100687.00;;;26.18;62.77
45285;BME280;31026;43.780;25.948;2022-07-29T12:36:50;100686.34;;;26.16;62.68
45285;BME280;31026;43.780;25.948;2022-07-29T12:39:18;100674.97;;;26.21;62.70
45285;BME280;31026;43.780;25.948;2022-07-29T12:41:47;100676.63;;;26.22;62.51
45285;BME280;31026;43.780;25.948;2022-07-29T12:44:16;100679.34;;;26.22;62.78
45285;BME280;31026;43.780;25.948;2022-07-29T12:46:46;100675.97;;;26.19;62.64
45285;BME280;31026;43.780;25.948;2022-07-29T12:49:28;100654.28;;;26.19;62.67
45285;BME280;31026;43.780;25.948;2022-07-29T12:51:57;100659.72;;;26.19;62.55
45285;BME280;31026;43.780;25.948;2022-07-29T12:54:26;100654.69;;;26.16;62.69
45285;BME280;31026;43.780;25.948;2022-07-29T12:56:58;100659.72;;;26.19;62.80
45285;BME280;31026;43.780;25.948;2022-07-29T12:59:26;100651.31;;;26.14;62.75
45285;BME280;31026;43.780;25.948;2022-07-29T13:01:57;100649.25;;;26.16;62.54
45285;BME280;31026;43.780;25.948;2022-07-29T13:04:26;100654.94;;;26.22;62.51
45285;BME280;31026;43.780;25.948;2022-07-29T13:06:58;100651.41;;;26.21;62.52
45285;BME280;31026;43.780;25.948;2022-07-29T13:09:35;100645.97;;;26.21;62.78
45285;BME280;31026;43.780;25.948;2022-07-29T13:12:05;100632.25;;;26.23;62.51
45285;BME280;31026;43.780;25.948;2022-07-29T13:14:35;100641.03;;;26.25;62.45
45285;BME280;31026;43.780;25.948;2022-07-29T13:17:07;100650.19;;;26.24;62.72
45285;BME280;31026;43.780;25.948;2022-07-29T13:19:36;100643.75;;;26.25;62.65
45285;BME280;31026;43.780;25.948;2022-07-29T13:22:05;100632.25;;;26.23;62.69